Time;durP1;ratioP1;P1;durP2;ratioP2;P2;SDS_P1;SDS_P2;PMS_P1;PMS_P2;Temp;Humidity;BMP_temperature;BMP_pressure;BME280_temperature;BME280_humidity;BME280_pressure;Samples;Min_cycle;Max_cycle;Signal;HPM_P1;HPM_P2
2022/05/13 00:00:04;;;;;;;2.58;1.95;;;19.50;35.50;;;;;;5051996;28;20173;-35
2022/05/13 00:02:29;;;;;;;2.15;1.65;;;19.50;35.20;;;;;;5051460;28;20176;-35
2022/05/13 00:04:55;;;;;;;2.40;2.00;;;19.50;35.20;;;;;;5062056;28;20549;-35
2022/05/13 00:07:21;;;;;;;4.83;2.40;;;19.50;35.30;;;;;;5060588;28;20208;-35
2022/05/13 00:10:00;;;;;;;4.43;1.53;;;19.40;35.20;;;;;;5051638;28;20680;-35
2022/05/13 00:12:33;;;;;;;3.85;2.30;;;19.40;35.80;;;;;;5051653;28;20160;-35
2022/05/13 00:15:00;;;;;;;2.88;2.08;;;19.40;35.20;;;;;;5051556;28;20633;-35
2022/05/13 00:17:27;;;;;;;3.45;2.50;;;19.40;35.10;;;;;;5051537;28;20284;-35
2022/05/13 00:19:53;;;;;;;2.30;1.67;;;19.40;35.70;;;;;;5051539;28;20181;-35
2022/05/13 00:22:20;;;;;;;2.00;1.58;;;19.30;35.80;;;;;;5051236;28;20266;-35
2022/05/13 00:24:46;;;;;;;2.10;1.52;;;19.30;35.70;;;;;;5051526;28;20227;-35
2022/05/13 00:27:12;;;;;;;3.08;1.92;;;19.30;35.60;;;;;;5054883;28;20264;-35
2022/05/13 00:29:38;;;;;;;3.22;2.00;;;19.30;35.80;;;;;;5055268;28;20649;-35
2022/05/13 00:32:05;;;;;;;2.60;1.80;;;19.20;35.70;;;;;;5055018;28;20188;-35
2022/05/13 00:34:32;;;;;;;3.22;1.73;;;19.20;35.70;;;;;;5055312;28;20231;-35
2022/05/13 00:36:58;;;;;;;3.35;1.33;;;19.20;35.60;;;;;;5054960;28;20248;-35
2022/05/13 00:39:24;;;;;;;2.53;1.90;;;19.20;35.70;;;;;;5055098;28;20252;-35
2022/05/13 00:41:50;;;;;;;3.75;2.50;;;19.20;35.70;;;;;;5054788;28;20161;-35
2022/05/13 00:44:16;;;;;;;3.13;1.40;;;19.20;35.70;;;;;;5055096;28;20223;-35
2022/05/13 00:46:41;;;;;;;3.53;2.00;;;19.20;35.70;;;;;;5055240;28;20239;-35
2022/05/13 00:49:11;;;;;;;2.30;1.77;;;19.20;35.90;;;;;;5054855;28;20265;-35
2022/05/13 00:51:41;;;;;;;1.92;1.50;;;19.20;35.60;;;;;;5054614;28;20520;-35
2022/05/13 00:54:11;;;;;;;3.35;1.70;;;19.20;35.40;;;;;;5054921;28;20180;-35
2022/05/13 00:56:42;;;;;;;2.17;1.98;;;19.20;35.60;;;;;;5054936;28;20173;-34
2022/05/13 00:59:10;;;;;;;2.25;1.38;;;19.20;35.70;;;;;;5054953;28;20189;-35
2022/05/13 01:01:35;;;;;;;2.25;1.50;;;19.20;35.70;;;;;;5054509;28;20185;-35
2022/05/13 01:04:07;;;;;;;2.53;1.33;;;19.20;36.10;;;;;;5054562;28;20266;-35
2022/05/13 01:06:33;;;;;;;2.17;1.42;;;19.10;36.10;;;;;;5054185;28;20188;-35
2022/05/13 01:09:00;;;;;;;1.83;1.55;;;19.10;35.90;;;;;;5074502;28;20197;-35
2022/05/13 01:11:30;;;;;;;2.92;2.08;;;19.10;35.90;;;;;;5054383;28;20157;-35
2022/05/13 01:14:02;;;;;;;2.63;2.38;;;19.10;36.60;;;;;;5054406;28;20170;-35
2022/05/13 01:16:28;;;;;;;2.22;1.60;;;19.00;36.50;;;;;;5054638;28;20193;-34
2022/05/13 01:18:54;;;;;;;3.20;2.20;;;19.00;36.50;;;;;;5054315;28;20225;-35
2022/05/13 01:21:25;;;;;;;2.33;1.83;;;18.90;36.70;;;;;;5054109;28;20178;-35
2022/05/13 01:23:52;;;;;;;2.90;1.77;;;18.80;36.40;;;;;;5054357;28;20629;-35
2022/05/13 01:26:25;;;;;;;3.00;1.85;;;18.80;36.40;;;;;;5054252;28;20181;-35
2022/05/13 01:28:54;;;;;;;4.70;1.60;;;18.80;36.40;;;;;;5053980;28;20220;-35
2022/05/13 01:31:27;;;;;;;3.05;1.50;;;18.70;36.60;;;;;;5053846;28;20260;-35
2022/05/13 01:33:53;;;;;;;2.08;1.75;;;18.70;36.70;;;;;;5054283;28;20641;-35
2022/05/13 01:36:19;;;;;;;2.08;1.50;;;18.60;36.70;;;;;;5053459;28;20197;-34
2022/05/13 01:38:45;;;;;;;2.80;2.00;;;18.60;36.70;;;;;;5070068;22;20236;-33
2022/05/13 01:41:13;;;;;;;2.00;1.33;;;18.60;36.70;;;;;;5063072;28;20629;-33
2022/05/13 01:43:41;;;;;;;2.85;1.95;;;18.60;36.80;;;;;;5067370;28;20578;-33
2022/05/13 01:46:07;;;;;;;2.47;1.55;;;18.60;36.80;;;;;;5073820;28;20728;-33
2022/05/13 01:48:34;;;;;;;3.83;1.10;;;18.50;36.70;;;;;;5073843;28;20283;-32
2022/05/13 01:50:59;;;;;;;2.30;1.90;;;18.50;36.60;;;;;;5073463;28;20199;-33
2022/05/13 01:53:26;;;;;;;3.07;1.90;;;18.50;36.60;;;;;;5073760;28;20172;-32
2022/05/13 01:55:52;;;;;;;2.45;1.55;;;18.50;36.70;;;;;;5073552;28;20477;-33
2022/05/13 01:58:21;;;;;;;4.17;1.77;;;18.50;36.70;;;;;;5073581;28;20204;-32
2022/05/13 02:00:49;;;;;;;4.07;2.15;;;18.50;36.70;;;;;;5073257;28;20208;-33
2022/05/13 02:05:59;;;;;;;2.33;1.80;;;18.40;36.80;;;;;;5072989;28;20177;-33
2022/05/13 02:08:25;;;;;;;2.22;1.80;;;18.30;36.80;;;;;;5066539;28;20185;-33
2022/05/13 02:10:51;;;;;;;2.78;1.73;;;18.30;36.70;;;;;;5068347;28;20232;-33
2022/05/13 02:13:17;;;;;;;3.53;2.10;;;18.30;36.70;;;;;;5073317;28;20168;-33
2022/05/13 02:15:43;;;;;;;5.63;2.50;;;18.20;36.70;;;;;;5073144;28;20275;-32
2022/05/13 02:18:10;;;;;;;2.50;2.03;;;18.20;36.70;;;;;;5073231;28;20207;-32
2022/05/13 02:20:37;;;;;;;2.88;1.85;;;18.10;36.80;;;;;;5073029;28;20193;-32
2022/05/13 02:23:03;;;;;;;2.38;1.70;;;18.10;36.90;;;;;;5073179;28;20239;-32
2022/05/13 02:25:32;;;;;;;3.10;1.87;;;18.10;37.20;;;;;;5073264;28;20210;-33
2022/05/13 02:27:58;;;;;;;3.13;2.08;;;18.00;37.30;;;;;;5070581;28;20498;-32
2022/05/13 02:30:25;;;;;;;4.75;1.45;;;18.00;37.10;;;;;;5064516;28;20652;-33
2022/05/13 02:32:51;;;;;;;2.40;2.10;;;18.00;37.00;;;;;;5072102;28;20173;-33
2022/05/13 02:35:16;;;;;;;2.67;2.10;;;17.90;37.20;;;;;;5064440;28;20196;-32
2022/05/13 02:37:42;;;;;;;2.90;2.17;;;17.90;37.30;;;;;;5072861;28;20883;-32
2022/05/13 02:40:09;;;;;;;2.50;1.70;;;17.90;37.30;;;;;;5072832;28;20212;-32
2022/05/13 02:42:34;;;;;;;3.30;2.17;;;17.80;37.40;;;;;;5072523;28;20399;-33
2022/05/13 02:45:00;;;;;;;2.37;1.90;;;17.70;37.30;;;;;;5054673;28;20267;-32
2022/05/13 02:47:26;;;;;;;3.40;2.10;;;17.80;37.40;;;;;;5072429;28;20169;-32
2022/05/13 02:50:17;;;;;;;2.37;1.87;;;17.70;37.70;;;;;;5072079;28;20184;-32
2022/05/13 02:52:38;;;;;;;2.67;1.92;;;17.60;37.70;;;;;;5072303;28;20429;-32
2022/05/13 02:55:05;;;;;;;2.72;1.90;;;17.60;37.50;;;;;;5072684;28;20275;-32
2022/05/13 02:57:31;;;;;;;2.92;2.05;;;17.60;37.70;;;;;;5072410;28;20196;-32
2022/05/13 02:59:59;;;;;;;3.93;2.17;;;17.60;37.70;;;;;;5072361;28;20192;-33
2022/05/13 03:02:25;;;;;;;3.10;2.33;;;17.40;38.00;;;;;;5072254;28;20406;-33
2022/05/13 03:04:51;;;;;;;2.80;1.98;;;17.40;38.50;;;;;;5072423;28;20603;-32
2022/05/13 03:07:16;;;;;;;3.63;2.10;;;17.40;37.80;;;;;;5070370;28;20701;-33
2022/05/13 03:09:42;;;;;;;3.60;1.67;;;17.40;37.80;;;;;;5060434;28;20553;-33
2022/05/13 03:12:09;;;;;;;2.70;1.80;;;17.30;38.00;;;;;;5051635;28;20180;-32
2022/05/13 03:14:34;;;;;;;2.70;1.77;;;17.40;38.10;;;;;;5072524;28;20276;-32
2022/05/13 03:17:00;;;;;;;3.00;1.90;;;17.30;38.10;;;;;;5054460;28;20584;-32
2022/05/13 03:19:25;;;;;;;3.10;2.40;;;17.30;38.20;;;;;;5072136;28;20233;-32
2022/05/13 03:21:51;;;;;;;2.77;2.23;;;17.30;37.90;;;;;;5072025;28;20636;-33
2022/05/13 03:24:17;;;;;;;2.30;1.90;;;17.20;37.90;;;;;;5072157;28;20165;-32
2022/05/13 03:26:42;;;;;;;3.03;1.90;;;17.20;38.40;;;;;;5071991;28;20176;-32
2022/05/13 03:29:08;;;;;;;2.93;2.07;;;17.10;38.20;;;;;;5072096;28;20192;-32
2022/05/13 03:31:36;;;;;;;5.97;1.93;;;17.10;38.40;;;;;;5071939;28;20172;-32
2022/05/13 03:34:02;;;;;;;2.90;2.10;;;17.20;38.10;;;;;;5072146;28;20164;-32
2022/05/13 03:36:27;;;;;;;2.60;2.00;;;17.20;38.30;;;;;;5071936;28;20204;-32
2022/05/13 03:38:53;;;;;;;3.00;2.20;;;17.20;38.20;;;;;;5071813;28;20242;-32
2022/05/13 03:41:19;;;;;;;2.80;2.20;;;17.20;38.20;;;;;;5071712;28;20485;-32
2022/05/13 03:43:44;;;;;;;2.10;1.80;;;17.10;38.20;;;;;;5071931;28;20184;-32
2022/05/13 03:46:10;;;;;;;4.37;2.30;;;17.20;38.20;;;;;;5071960;28;20536;-32
2022/05/13 03:48:36;;;;;;;3.13;2.30;;;17.20;38.20;;;;;;5071884;28;20222;-32
2022/05/13 03:51:02;;;;;;;3.33;1.77;;;17.20;38.60;;;;;;5071745;28;20211;-33
2022/05/13 03:53:28;;;;;;;2.35;1.63;;;17.10;38.80;;;;;;5071879;28;20168;-32
2022/05/13 03:55:54;;;;;;;2.90;1.80;;;17.00;38.50;;;;;;5071810;28;20192;-32
2022/05/13 03:58:20;;;;;;;2.53;2.27;;;17.00;38.70;;;;;;5072016;28;20640;-32
2022/05/13 04:00:46;;;;;;;4.27;2.40;;;17.00;38.70;;;;;;5056531;28;20252;-33
2022/05/13 04:03:13;;;;;;;2.78;2.30;;;17.00;38.50;;;;;;5075805;28;20707;-32
2022/05/13 04:11:07;;;;;;;3.17;2.40;;;17.10;38.60;;;;;;5075445;28;20222;-32
2022/05/13 04:16:17;;;;;;;11.23;3.78;;;17.10;38.90;;;;;;5075529;28;20537;-33
2022/05/13 04:18:46;;;;;;;4.00;2.50;;;17.10;38.80;;;;;;5075373;28;20616;-32
2022/05/13 04:21:19;;;;;;;8.73;3.50;;;17.20;39.00;;;;;;5075275;28;20254;-32
2022/05/13 04:23:47;;;;;;;6.50;3.00;;;17.20;38.70;;;;;;5075378;28;20244;-32
2022/05/13 04:26:13;;;;;;;3.67;2.40;;;17.30;38.80;;;;;;5075313;28;20208;-32
2022/05/13 04:28:41;;;;;;;3.58;3.03;;;17.40;39.00;;;;;;5075254;28;20227;-33
2022/05/13 04:31:08;;;;;;;2.85;1.85;;;17.50;38.80;;;;;;5075263;28;20268;-32
2022/05/13 04:33:34;;;;;;;2.70;1.98;;;17.70;38.50;;;;;;5075339;28;20184;-32
2022/05/13 04:35:59;;;;;;;4.33;2.90;;;17.70;38.40;;;;;;5075088;28;20203;-32
2022/05/13 04:38:25;;;;;;;4.87;2.63;;;17.70;38.40;;;;;;5074906;28;20434;-32
2022/05/13 04:40:51;;;;;;;6.33;2.73;;;17.80;38.40;;;;;;5074931;28;20172;-32
2022/05/13 04:43:16;;;;;;;3.03;2.37;;;17.80;38.40;;;;;;5075282;28;20248;-33
2022/05/13 04:45:42;;;;;;;3.00;2.27;;;17.90;38.50;;;;;;5074880;28;20173;-32
2022/05/13 04:48:21;;;;;;;3.13;1.73;;;17.90;38.50;;;;;;5057091;28;20187;-32
2022/05/13 04:50:58;;;;;;;5.78;2.75;;;18.00;38.50;;;;;;5073937;28;20513;-32
2022/05/13 04:53:30;;;;;;;3.10;1.88;;;18.00;38.70;;;;;;5066451;28;20337;-32
2022/05/13 04:55:57;;;;;;;5.07;2.38;;;18.10;38.70;;;;;;5074743;28;20181;-32
2022/05/13 04:58:23;;;;;;;5.30;2.35;;;18.10;38.60;;;;;;5075074;28;20709;-32
2022/05/13 05:00:51;;;;;;;3.30;2.30;;;18.20;39.00;;;;;;5074495;28;20225;-32
2022/05/13 05:03:17;;;;;;;3.00;2.42;;;18.20;38.80;;;;;;5074632;28;20165;-32
2022/05/13 05:05:43;;;;;;;7.97;4.20;;;18.30;38.80;;;;;;5074892;28;20187;-32
2022/05/13 05:08:10;;;;;;;3.17;2.70;;;18.40;38.80;;;;;;5074602;28;20176;-32
2022/05/13 05:10:36;;;;;;;3.40;2.80;;;18.50;38.80;;;;;;5073854;28;20189;-33
2022/05/13 05:13:02;;;;;;;3.97;2.75;;;18.50;38.60;;;;;;5069637;28;20195;-32
2022/05/13 05:15:28;;;;;;;5.87;2.53;;;18.60;38.50;;;;;;5066000;28;20672;-33
2022/05/13 05:17:55;;;;;;;3.67;2.70;;;18.60;38.70;;;;;;5074443;28;20164;-32
2022/05/13 05:20:21;;;;;;;8.93;3.00;;;18.60;38.80;;;;;;5074359;28;20196;-32
2022/05/13 05:22:47;;;;;;;4.35;2.60;;;18.60;38.60;;;;;;5074246;28;20173;-32
2022/05/13 05:25:18;;;;;;;3.53;3.22;;;18.70;38.60;;;;;;5056299;28;20172;-32
2022/05/13 05:27:44;;;;;;;9.95;3.00;;;18.80;38.80;;;;;;5074473;28;20528;-32
2022/05/13 05:30:12;;;;;;;10.27;3.03;;;18.80;38.40;;;;;;5074038;28;20214;-33
2022/05/13 05:32:41;;;;;;;2.95;2.28;;;19.00;38.40;;;;;;5073995;28;20437;-33
2022/05/13 05:35:11;;;;;;;8.43;2.60;;;19.00;38.10;;;;;;5073966;28;20298;-32
2022/05/13 05:37:37;;;;;;;4.82;2.58;;;19.10;38.00;;;;;;5074201;28;20195;-32
2022/05/13 05:40:04;;;;;;;5.37;2.67;;;19.20;38.20;;;;;;5073690;28;20239;-32
2022/05/13 05:42:30;;;;;;;3.55;3.15;;;19.20;38.20;;;;;;5073571;28;20165;-32
2022/05/13 05:44:56;;;;;;;4.00;3.47;;;19.30;38.10;;;;;;5073973;28;20191;-33
2022/05/13 05:47:23;;;;;;;4.20;2.60;;;19.40;38.00;;;;;;5072979;28;20176;-32
2022/05/13 05:49:49;;;;;;;5.78;4.05;;;19.50;37.90;;;;;;5063961;28;20205;-32
2022/05/13 05:52:15;;;;;;;3.45;2.83;;;19.70;37.80;;;;;;5072004;28;20172;-33
2022/05/13 05:57:26;;;;;;;4.25;2.50;;;19.90;37.60;;;;;;5073598;28;20198;-33
2022/05/13 05:59:52;;;;;;;4.85;3.25;;;20.00;37.20;;;;;;5073817;28;20188;-33
2022/05/13 06:02:18;;;;;;;3.53;2.40;;;20.10;37.00;;;;;;5073283;28;20680;-33
2022/05/13 06:04:44;;;;;;;3.00;2.40;;;20.10;37.00;;;;;;5073477;28;20407;-33
2022/05/13 06:07:16;;;;;;;4.40;2.83;;;20.30;37.10;;;;;;5073405;28;20164;-33
2022/05/13 06:09:43;;;;;;;5.13;2.63;;;20.40;36.90;;;;;;5073265;28;20525;-33
2022/05/13 06:12:10;;;;;;;4.85;3.08;;;20.50;36.80;;;;;;5073175;28;20205;-32
2022/05/13 06:14:37;;;;;;;2.20;1.90;;;20.60;36.60;;;;;;5073239;28;20219;-33
2022/05/13 06:17:03;;;;;;;3.28;2.25;;;20.80;36.70;;;;;;5073289;28;20176;-33
2022/05/13 06:19:29;;;;;;;3.55;2.58;;;20.90;36.30;;;;;;5073422;28;20188;-32
2022/05/13 06:21:55;;;;;;;3.95;2.67;;;21.00;36.10;;;;;;5072819;28;20177;-33
2022/05/13 06:24:22;;;;;;;4.95;2.80;;;21.20;36.20;;;;;;5073007;28;20211;-33
2022/05/13 06:26:49;;;;;;;3.90;3.33;;;21.30;36.00;;;;;;5073129;28;20660;-32
2022/05/13 06:29:20;;;;;;;4.65;2.72;;;21.40;35.80;;;;;;5072935;28;20188;-33
2022/05/13 06:31:46;;;;;;;3.22;2.78;;;21.60;35.90;;;;;;5072869;28;20243;-33
2022/05/13 06:34:12;;;;;;;6.15;4.00;;;21.70;35.60;;;;;;5072832;28;20168;-32
2022/05/13 06:36:38;;;;;;;3.72;2.67;;;21.80;35.20;;;;;;5072857;28;20196;-33
2022/05/13 06:39:06;;;;;;;6.67;3.30;;;21.90;35.20;;;;;;5072617;28;20196;-33
2022/05/13 06:41:37;;;;;;;3.20;2.70;;;22.00;34.90;;;;;;5072715;28;20221;-33
2022/05/13 06:44:07;;;;;;;4.03;3.05;;;22.10;34.70;;;;;;5072703;28;20200;-32
2022/05/13 06:46:35;;;;;;;3.53;2.80;;;22.20;35.00;;;;;;5072974;28;20165;-32
2022/05/13 06:49:04;;;;;;;2.63;2.30;;;22.30;34.80;;;;;;5072483;28;20189;-32
2022/05/13 06:51:31;;;;;;;3.20;2.40;;;22.40;35.10;;;;;;5072280;28;20490;-32
2022/05/13 06:53:57;;;;;;;6.87;3.50;;;22.40;34.10;;;;;;5072795;28;20423;-32
2022/05/13 06:56:22;;;;;;;4.17;2.50;;;22.50;34.60;;;;;;5072408;28;20457;-32
2022/05/13 06:58:48;;;;;;;4.17;2.70;;;22.70;34.40;;;;;;5072472;28;20427;-32
2022/05/13 07:01:14;;;;;;;3.43;2.67;;;22.80;34.70;;;;;;5072140;28;20579;-32
2022/05/13 07:03:39;;;;;;;3.47;2.30;;;22.90;33.90;;;;;;5072369;28;20171;-32
2022/05/13 07:06:05;;;;;;;3.17;2.17;;;22.90;33.90;;;;;;5072393;28;20682;-32
2022/05/13 07:08:31;;;;;;;5.40;2.20;;;22.90;33.90;;;;;;5072287;28;20628;-32
2022/05/13 07:10:57;;;;;;;4.50;2.63;;;22.90;33.70;;;;;;5072387;28;20406;-32
2022/05/13 07:13:24;;;;;;;3.70;2.23;;;23.00;33.90;;;;;;5072295;28;20421;-32
2022/05/13 07:15:49;;;;;;;2.13;1.60;;;23.10;33.90;;;;;;5072357;28;20486;-32
2022/05/13 07:18:15;;;;;;;2.37;1.63;;;23.10;33.30;;;;;;5072230;28;20431;-32
2022/05/13 07:20:41;;;;;;;3.80;2.47;;;23.20;33.50;;;;;;5072087;28;20183;-32
2022/05/13 07:23:07;;;;;;;3.13;1.90;;;23.30;33.60;;;;;;5072192;28;20164;-32
2022/05/13 07:25:33;;;;;;;3.80;1.60;;;23.40;33.40;;;;;;5072155;28;20755;-32
2022/05/13 07:27:59;;;;;;;2.60;2.03;;;23.50;32.90;;;;;;5072265;28;20172;-32
2022/05/13 07:30:25;;;;;;;2.97;2.07;;;23.60;32.50;;;;;;5072143;28;20523;-32
2022/05/13 07:32:51;;;;;;;3.43;1.90;;;23.70;32.90;;;;;;5072325;28;20549;-32
2022/05/13 07:35:16;;;;;;;6.43;1.90;;;23.90;32.30;;;;;;5071968;28;20192;-31
2022/05/13 07:37:42;;;;;;;4.17;2.03;;;24.10;30.90;;;;;;5072440;28;20255;-32
2022/05/13 07:42:52;;;;;;;3.17;1.50;;;24.20;31.20;;;;;;5072542;28;20156;-32
2022/05/13 07:45:18;;;;;;;1.90;1.20;;;24.50;31.80;;;;;;5071841;28;20411;-32
2022/05/13 07:47:44;;;;;;;1.90;1.33;;;24.60;29.50;;;;;;5071959;28;20190;-32
2022/05/13 07:50:11;;;;;;;5.80;1.20;;;24.70;30.20;;;;;;5071882;28;20442;-32
2022/05/13 07:52:40;;;;;;;1.90;1.07;;;24.80;30.40;;;;;;5071616;28;20168;-32
2022/05/13 07:55:07;;;;;;;2.20;1.40;;;25.00;30.10;;;;;;5071932;28;20446;-32
2022/05/13 07:57:32;;;;;;;3.60;1.50;;;25.10;29.50;;;;;;5071847;28;20427;-32
2022/05/13 08:02:43;;;;;;;3.63;1.60;;;25.40;27.80;;;;;;5071730;28;20194;-32
2022/05/13 08:05:09;;;;;;;3.10;2.03;;;25.50;28.20;;;;;;5071815;28;20414;-32
2022/05/13 08:07:34;;;;;;;3.10;2.07;;;25.70;27.60;;;;;;5071936;28;20771;-33
2022/05/13 08:10:00;;;;;;;1.97;1.13;;;25.80;27.20;;;;;;5071588;28;20430;-32
2022/05/13 08:12:26;;;;;;;4.57;1.70;;;25.80;27.20;;;;;;5071498;28;20177;-32
2022/05/13 08:14:53;;;;;;;7.33;1.63;;;25.80;26.30;;;;;;5071662;28;20196;-32
2022/05/13 08:17:18;;;;;;;2.43;1.40;;;25.90;23.50;;;;;;5071681;28;20219;-32
2022/05/13 08:19:44;;;;;;;4.03;1.67;;;25.80;23.40;;;;;;5071559;28;20419;-32
2022/05/13 08:22:10;;;;;;;1.90;1.00;;;25.80;23.30;;;;;;5071695;28;20286;-32
2022/05/13 08:24:35;;;;;;;2.50;1.67;;;25.80;24.00;;;;;;5071508;28;20640;-33
2022/05/13 08:27:01;;;;;;;2.10;1.50;;;25.90;23.40;;;;;;5071473;28;20165;-32
2022/05/13 08:29:27;;;;;;;1.70;1.23;;;25.80;24.80;;;;;;5071420;28;20220;-32
2022/05/13 08:31:52;;;;;;;1.97;1.50;;;25.90;23.20;;;;;;5071353;28;20241;-32
2022/05/13 08:34:40;;;;;;;2.33;1.10;;;25.90;23.80;;;;;;5071452;28;20226;-32
2022/05/13 08:37:05;;;;;;;5.60;1.60;;;26.00;24.80;;;;;;5071016;28;20679;-32
2022/05/13 08:39:31;;;;;;;2.40;1.70;;;26.00;25.10;;;;;;5053410;28;20442;-33
2022/05/13 08:42:46;;;;;;;2.10;1.40;;;25.90;24.20;;;;;;5071537;28;20177;-32
2022/05/13 08:45:13;;;;;;;4.73;1.40;;;26.10;24.80;;;;;;4970389;28;20231;-32
2022/05/13 08:47:52;;;;;;;5.03;1.40;;;26.10;25.70;;;;;;4972784;28;20403;-33
2022/05/13 08:50:42;;;;;;;2.87;1.90;;;26.30;25.40;;;;;;4973701;28;20435;-32
2022/05/13 08:53:34;;;;;;;3.30;1.37;;;26.40;23.90;;;;;;4973829;28;20458;-32
2022/05/13 08:56:05;;;;;;;2.50;1.80;;;26.50;22.40;;;;;;4973579;28;20467;-32
2022/05/13 08:58:44;;;;;;;3.43;1.90;;;26.40;23.70;;;;;;4973662;28;20407;-32
2022/05/13 09:01:14;;;;;;;5.40;1.80;;;26.40;23.50;;;;;;4973523;28;20977;-32
2022/05/13 09:03:50;;;;;;;2.03;1.33;;;26.50;24.50;;;;;;4973525;28;20419;-32
2022/05/13 09:06:39;;;;;;;2.57;1.90;;;26.50;22.90;;;;;;4973622;28;20411;-32
2022/05/13 09:09:07;;;;;;;5.50;1.50;;;26.30;22.90;;;;;;4973550;28;20546;-32
2022/05/13 09:11:44;;;;;;;2.53;1.63;;;26.30;24.60;;;;;;4973341;28;20415;-32
2022/05/13 09:14:38;;;;;;;2.20;1.53;;;26.40;23.70;;;;;;4973655;28;20498;-33
2022/05/13 09:17:34;;;;;;;5.40;1.90;;;26.60;24.20;;;;;;5069955;28;20423;-33
2022/05/13 09:20:13;;;;;;;1.97;1.20;;;26.90;25.10;;;;;;5074446;28;20426;-33
2022/05/13 09:22:45;;;;;;;2.33;1.73;;;27.10;23.90;;;;;;5074223;28;20800;-32
2022/05/13 09:25:26;;;;;;;4.00;1.70;;;27.00;22.00;;;;;;5068520;28;20415;-32
2022/05/13 09:28:00;;;;;;;2.60;1.70;;;26.90;23.30;;;;;;5069629;28;20484;-32
2022/05/13 09:30:36;;;;;;;2.43;1.30;;;26.90;23.80;;;;;;5073838;28;20425;-33
2022/05/13 09:33:18;;;;;;;3.93;1.53;;;27.10;23.90;;;;;;5074173;28;20402;-33
2022/05/13 09:35:44;;;;;;;3.57;1.57;;;27.20;24.00;;;;;;5074043;28;20511;-32
2022/05/13 09:38:30;;;;;;;2.60;1.27;;;27.20;20.80;;;;;;5074185;28;20407;-32
2022/05/13 09:41:10;;;;;;;3.53;1.47;;;26.90;21.10;;;;;;5074282;28;20894;-32
2022/05/13 09:43:42;;;;;;;1.80;1.17;;;26.80;22.40;;;;;;5074050;28;20403;-32
2022/05/13 09:46:20;;;;;;;2.57;1.70;;;26.80;21.90;;;;;;5074044;28;20894;-32
2022/05/13 09:49:17;;;;;;;2.33;1.37;;;26.70;21.00;;;;;;5072472;28;20418;-32
2022/05/13 09:51:57;;;;;;;2.00;1.03;;;26.50;22.60;;;;;;5047766;28;20432;-32
2022/05/13 09:54:31;;;;;;;1.67;1.20;;;26.60;23.20;;;;;;5053569;28;20460;-32
2022/05/13 09:57:28;;;;;;;2.43;1.57;;;26.70;22.80;;;;;;5053364;28;20403;-32
2022/05/13 10:00:00;;;;;;;4.03;1.43;;;26.90;22.70;;;;;;5053618;28;20506;-32
2022/05/13 10:02:34;;;;;;;2.97;1.43;;;26.90;22.50;;;;;;5053318;28;20406;-32
2022/05/13 10:05:22;;;;;;;2.00;1.30;;;27.10;23.80;;;;;;5053725;28;20495;-32
2022/05/13 10:07:59;;;;;;;6.97;1.30;;;27.40;23.80;;;;;;5053486;28;20911;-32
2022/05/13 10:16:26;;;;;;;2.77;1.10;;;27.50;22.70;;;;;;5053415;28;20442;-32
2022/05/13 10:19:13;;;;;;;4.07;1.87;;;27.30;21.20;;;;;;5053378;28;20536;-32
2022/05/13 10:22:16;;;;;;;5.03;1.23;;;27.10;22.50;;;;;;5053130;28;20406;-32
2022/05/13 10:24:47;;;;;;;2.17;1.57;;;27.00;23.00;;;;;;5053253;28;20496;-32
2022/05/13 10:27:27;;;;;;;1.60;1.00;;;26.90;23.30;;;;;;5053263;28;20396;-32
2022/05/13 10:29:58;;;;;;;2.57;1.50;;;26.90;23.80;;;;;;5053038;28;20423;-32
2022/05/13 10:32:39;;;;;;;9.30;1.60;;;26.90;23.60;;;;;;5054763;28;20419;-32
2022/05/13 10:35:08;;;;;;;4.30;1.83;;;27.10;23.90;;;;;;5064446;28;20588;-33
2022/05/13 10:37:37;;;;;;;2.20;1.60;;;27.10;22.40;;;;;;5072854;28;20489;-33
2022/05/13 10:40:16;;;;;;;3.30;1.70;;;27.20;23.30;;;;;;5072562;28;20815;-32
2022/05/13 10:42:51;;;;;;;5.73;1.73;;;27.40;23.30;;;;;;5072703;28;20399;-32
2022/05/13 10:45:22;;;;;;;8.07;1.70;;;27.40;21.40;;;;;;5072828;28;20390;-32
2022/05/13 10:48:04;;;;;;;3.40;1.47;;;27.50;20.90;;;;;;5072742;28;20856;-32
2022/05/13 10:51:02;;;;;;;2.47;1.40;;;27.40;21.20;;;;;;5072300;28;20427;-33
2022/05/13 10:53:44;;;;;;;4.00;2.17;;;27.40;21.10;;;;;;5072907;28;20406;-32
2022/05/13 10:56:38;;;;;;;2.37;1.60;;;27.20;19.70;;;;;;5072735;28;20449;-32
2022/05/13 10:59:40;;;;;;;6.10;1.70;;;27.00;21.20;;;;;;5072381;28;20902;-32
2022/05/13 11:02:32;;;;;;;2.03;1.43;;;26.70;20.30;;;;;;5072475;28;20402;-32
2022/05/13 11:05:22;;;;;;;3.20;1.40;;;26.60;21.60;;;;;;5072318;28;20490;-32
2022/05/13 11:08:09;;;;;;;3.30;1.60;;;26.40;21.40;;;;;;5072423;28;20384;-33
2022/05/13 11:11:20;;;;;;;2.10;1.27;;;26.70;22.90;;;;;;5054920;28;20454;-32
2022/05/13 11:14:06;;;;;;;2.97;1.40;;;27.00;22.00;;;;;;4971435;28;20423;-32
2022/05/13 11:16:46;;;;;;;3.07;1.40;;;27.00;21.00;;;;;;4971481;28;20498;-32
2022/05/13 11:19:34;;;;;;;5.27;1.73;;;27.20;20.70;;;;;;4971224;28;20439;-32
2022/05/13 11:22:12;;;;;;;4.60;1.60;;;27.00;20.30;;;;;;4971014;28;20478;-32
2022/05/13 11:28:03;;;;;;;3.73;1.20;;;27.20;19.10;;;;;;4971347;28;20418;-32
2022/05/13 11:30:54;;;;;;;3.17;1.87;;;26.90;19.20;;;;;;4970783;28;20747;-32
2022/05/13 11:33:43;;;;;;;6.07;1.30;;;27.10;21.00;;;;;;4971045;28;20466;-32
2022/05/13 11:36:39;;;;;;;2.17;1.40;;;27.20;22.00;;;;;;4970909;28;20465;-32
2022/05/13 11:39:38;;;;;;;2.93;1.80;;;27.60;22.70;;;;;;4970839;28;20465;-32
2022/05/13 11:42:13;;;;;;;2.13;1.37;;;27.80;20.70;;;;;;4970749;28;20896;-32
2022/05/13 11:44:50;;;;;;;9.87;2.00;;;28.00;22.20;;;;;;4970824;28;20494;-32
2022/05/13 11:47:59;;;;;;;2.33;1.30;;;28.30;21.80;;;;;;4999652;28;20403;-32
2022/05/13 11:50:27;;;;;;;1.80;1.10;;;28.30;19.00;;;;;;5071936;28;20422;-33
2022/05/13 11:52:53;;;;;;;2.70;1.10;;;28.20;19.60;;;;;;5054121;28;20793;-32
2022/05/13 11:55:47;;;;;;;5.93;2.00;;;27.80;19.90;;;;;;5072008;28;21003;-33
2022/05/13 11:58:46;;;;;;;4.93;2.53;;;27.70;19.50;;;;;;5072134;28;20383;-33
2022/05/13 12:01:13;;;;;;;2.60;2.13;;;27.50;21.40;;;;;;5071788;28;20387;-33
2022/05/13 12:03:39;;;;;;;2.33;1.87;;;27.70;21.50;;;;;;5071776;28;20493;-33
2022/05/13 12:06:10;;;;;;;2.53;1.73;;;27.90;22.20;;;;;;5071890;28;20410;-33
2022/05/13 12:08:50;;;;;;;2.27;1.40;;;28.30;21.80;;;;;;5071607;28;20423;-33
2022/05/13 12:11:24;;;;;;;2.63;1.33;;;28.50;22.00;;;;;;5071888;28;20440;-32
2022/05/13 12:14:39;;;;;;;2.50;1.67;;;28.70;22.20;;;;;;5071900;28;20476;-33
2022/05/13 12:17:19;;;;;;;3.30;1.40;;;28.70;21.60;;;;;;4982614;28;20518;-33
2022/05/13 12:20:04;;;;;;;1.80;1.00;;;28.80;21.60;;;;;;5071542;28;20411;-33
2022/05/13 12:22:29;;;;;;;1.90;1.37;;;29.00;21.70;;;;;;5075448;28;20405;-33
2022/05/13 12:25:04;;;;;;;3.00;1.13;;;29.10;21.50;;;;;;5075633;28;20395;-32
2022/05/13 12:28:01;;;;;;;2.03;1.00;;;29.20;20.80;;;;;;5075441;28;20273;-33
2022/05/13 12:30:34;;;;;;;2.13;1.40;;;29.00;21.10;;;;;;5075208;28;20419;-32
2022/05/13 12:33:24;;;;;;;2.90;1.20;;;28.70;19.50;;;;;;5075263;28;20395;-32
2022/05/13 12:39:17;;;;;;;6.70;2.23;;;28.80;20.80;;;;;;5040879;28;20443;-32
2022/05/13 12:41:46;;;;;;;2.80;1.40;;;28.90;20.40;;;;;;5075275;28;20403;-32
2022/05/13 12:44:30;;;;;;;5.13;2.33;;;28.90;19.40;;;;;;5056935;28;20460;-32
2022/05/13 12:47:14;;;;;;;2.57;1.47;;;28.60;19.00;;;;;;5074819;28;20413;-33
2022/05/13 12:49:49;;;;;;;1.80;1.10;;;28.50;20.00;;;;;;5075255;28;20946;-32
2022/05/13 12:52:22;;;;;;;5.47;1.67;;;28.40;19.60;;;;;;5074715;28;20407;-32
2022/05/13 12:55:08;;;;;;;6.97;2.20;;;28.50;20.60;;;;;;5074901;28;20400;-33
2022/05/13 12:57:51;;;;;;;5.33;1.60;;;28.60;20.10;;;;;;5074985;28;20397;-32
2022/05/13 13:00:23;;;;;;;3.87;1.20;;;28.90;20.30;;;;;;5074579;28;20427;-33
2022/05/13 13:02:52;;;;;;;2.17;1.30;;;29.10;21.30;;;;;;5074650;28;20410;-33
2022/05/13 13:05:23;;;;;;;1.80;1.27;;;29.40;21.20;;;;;;5075176;28;20406;-33
2022/05/13 13:07:54;;;;;;;2.93;1.50;;;29.50;19.30;;;;;;5074650;28;20399;-31
2022/05/13 13:10:22;;;;;;;12.83;1.93;;;29.50;19.60;;;;;;5074610;28;21005;-32
2022/05/13 13:13:15;;;;;;;3.20;1.70;;;29.40;18.60;;;;;;5074874;28;20415;-32
2022/05/13 13:15:52;;;;;;;3.20;1.43;;;29.50;20.20;;;;;;5074898;28;20474;-33
2022/05/13 13:18:35;;;;;;;5.00;1.43;;;29.60;20.00;;;;;;5074874;28;20426;-33
2022/05/13 13:21:09;;;;;;;2.63;1.30;;;29.70;18.60;;;;;;5074679;28;20402;-33
2022/05/13 13:23:43;;;;;;;3.40;1.20;;;29.20;18.90;;;;;;5074368;28;20410;-33
2022/05/13 13:26:13;;;;;;;1.97;1.03;;;29.10;19.90;;;;;;5074333;28;20672;-32
2022/05/13 13:28:40;;;;;;;4.30;1.90;;;29.20;19.80;;;;;;5074535;28;20434;-32
2022/05/13 13:31:14;;;;;;;5.70;1.77;;;29.30;19.50;;;;;;5073888;28;20414;-32
2022/05/13 13:33:49;;;;;;;8.03;1.20;;;29.10;18.30;;;;;;5073124;28;20440;-33
2022/05/13 13:36:31;;;;;;;7.40;1.30;;;28.90;19.40;;;;;;5066747;28;20466;-32
2022/05/13 13:38:59;;;;;;;6.73;2.17;;;28.70;18.60;;;;;;5069855;28;20450;-33